Time;durP1;ratioP1;P1;durP2;ratioP2;P2;SDS_P1;SDS_P2;PMS_P1;PMS_P2;Temp;Humidity;BMP_temperature;BMP_pressure;BME280_temperature;BME280_humidity;BME280_pressure;Samples;Min_cycle;Max_cycle;Signal;HPM_P1;HPM_P2
2022/12/27 00:01:44;;;;;;;31.23;3.55;;;;;;;3.69;100.00;101264.56;4925986;29;20388;-75
2022/12/27 00:04:09;;;;;;;30.02;3.85;;;;;;;3.79;100.00;101268.34;4926248;29;20111;-75
2022/12/27 00:06:35;;;;;;;24.35;3.08;;;;;;;3.71;100.00;101278.69;4913763;29;20020;-76
2022/12/27 00:09:01;;;;;;;19.67;3.28;;;;;;;3.77;100.00;101279.13;4913114;29;20032;-76
2022/12/27 00:11:30;;;;;;;28.15;3.20;;;;;;;3.80;100.00;101270.91;4912806;29;20107;-75
2022/12/27 00:14:00;;;;;;;20.88;3.50;;;;;;;3.79;100.00;101276.38;4932497;29;20052;-76
2022/12/27 00:16:26;;;;;;;20.17;3.22;;;;;;;3.69;100.00;101286.00;4923783;29;20027;-75
2022/12/27 00:18:51;;;;;;;22.55;3.50;;;;;;;3.73;100.00;101271.44;4915531;29;20094;-77
2022/12/27 00:21:19;;;;;;;28.23;3.67;;;;;;;3.77;100.00;101273.78;4922375;29;20028;-77
2022/12/27 00:23:47;;;;;;;28.58;3.85;;;;;;;3.65;100.00;101289.81;4904296;29;20115;-75
2022/12/27 00:26:23;;;;;;;31.05;4.10;;;;;;;3.71;100.00;101294.75;4905864;29;20039;-75
2022/12/27 00:28:49;;;;;;;18.90;3.38;;;;;;;3.68;100.00;101284.28;4910288;29;20028;-75
2022/12/27 00:31:16;;;;;;;23.02;4.70;;;;;;;3.65;100.00;101281.78;4896444;29;20029;-75
2022/12/27 00:33:43;;;;;;;19.45;2.92;;;;;;;3.62;100.00;101300.75;4901977;29;20020;-75
2022/12/27 00:36:12;;;;;;;26.45;3.70;;;;;;;3.61;100.00;101293.69;4907645;29;20030;-75
2022/12/27 00:38:38;;;;;;;28.20;3.85;;;;;;;3.71;100.00;101289.41;4903960;29;20034;-75
2022/12/27 00:41:04;;;;;;;26.15;3.90;;;;;;;3.64;100.00;101293.47;4913541;29;20031;-75
2022/12/27 00:43:30;;;;;;;21.40;3.35;;;;;;;3.71;100.00;101305.47;4924923;29;20019;-75
2022/12/27 00:45:55;;;;;;;21.85;3.13;;;;;;;3.87;100.00;101290.09;4901285;29;20018;-75
2022/12/27 00:48:21;;;;;;;17.48;3.00;;;;;;;3.72;100.00;101265.22;4896648;29;20080;-76
2022/12/27 00:50:47;;;;;;;19.42;3.80;;;;;;;3.69;100.00;101286.84;4913682;29;20024;-75
2022/12/27 00:53:13;;;;;;;25.08;3.20;;;;;;;3.76;100.00;101292.63;4922414;29;20024;-75
2022/12/27 00:55:42;;;;;;;23.88;3.25;;;;;;;3.66;100.00;101294.25;4911550;29;20024;-75
2022/12/27 00:58:07;;;;;;;29.55;3.90;;;;;;;3.69;100.00;101286.00;4904268;29;20032;-76
2022/12/27 01:00:33;;;;;;;33.03;5.18;;;;;;;3.66;100.00;101302.28;4896493;29;20422;-75
2022/12/27 01:02:58;;;;;;;31.73;5.45;;;;;;;3.63;100.00;101297.09;4911163;29;20105;-75
2022/12/27 01:05:24;;;;;;;27.08;3.58;;;;;;;3.58;100.00;101299.22;4929732;29;20032;-76
2022/12/27 01:07:49;;;;;;;19.00;3.22;;;;;;;3.51;100.00;101305.00;4910183;29;20028;-75
2022/12/27 01:10:14;;;;;;;19.52;3.08;;;;;;;3.67;100.00;101298.63;4898735;29;20043;-75
2022/12/27 01:12:40;;;;;;;18.98;5.13;;;;;;;3.56;100.00;101301.16;4900650;29;20020;-75
2022/12/27 01:15:07;;;;;;;22.20;3.83;;;;;;;3.54;100.00;101320.88;4904070;29;20082;-75
2022/12/27 01:17:33;;;;;;;30.17;3.80;;;;;;;3.51;100.00;101294.28;4931646;29;20034;-76
2022/12/27 01:19:58;;;;;;;26.77;4.30;;;;;;;3.50;100.00;101292.56;4915285;29;20032;-75
2022/12/27 01:22:24;;;;;;;31.65;3.67;;;;;;;3.42;100.00;101289.56;4915118;29;20114;-75
2022/12/27 01:24:49;;;;;;;22.23;4.43;;;;;;;3.44;100.00;101303.69;4932046;29;20031;-76
2022/12/27 01:27:14;;;;;;;20.25;2.88;;;;;;;3.49;100.00;101317.63;4915343;29;20613;-75
2022/12/27 01:29:40;;;;;;;18.83;3.17;;;;;;;3.50;100.00;101324.69;4930500;29;20055;-75
2022/12/27 01:32:05;;;;;;;27.15;3.88;;;;;;;3.59;100.00;101317.03;4915001;29;20028;-77
2022/12/27 01:34:30;;;;;;;18.10;3.70;;;;;;;3.38;100.00;101304.09;4914975;29;20028;-75
2022/12/27 01:36:56;;;;;;;20.10;3.28;;;;;;;3.38;100.00;101314.78;4915424;29;20026;-75
2022/12/27 01:39:22;;;;;;;24.58;4.45;;;;;;;3.31;100.00;101334.91;4915022;29;20035;-75
2022/12/27 01:44:41;;;;;;;23.02;3.92;;;;;;;3.27;100.00;101362.84;4940220;29;20131;-75
2022/12/27 01:47:38;;;;;;;19.30;4.05;;;;;;;3.34;100.00;101324.00;4941970;29;20039;-78
2022/12/27 01:50:22;;;;;;;14.10;2.80;;;;;;;3.31;100.00;101334.91;4931446;29;20091;-75
2022/12/27 01:52:56;;;;;;;22.35;3.88;;;;;;;3.31;100.00;101329.53;4929500;29;20062;-75
2022/12/27 01:55:30;;;;;;;20.67;4.43;;;;;;;3.35;100.00;101331.06;4935507;29;20122;-78
2022/12/27 01:58:02;;;;;;;27.75;3.67;;;;;;;3.32;100.00;101325.91;4918494;29;20119;-75
2022/12/27 02:00:27;;;;;;;27.63;3.92;;;;;;;3.28;100.00;101351.16;4918221;29;20059;-75
2022/12/27 02:02:53;;;;;;;19.70;4.07;;;;;;;3.35;100.00;101347.13;4918358;29;20127;-75
2022/12/27 02:05:21;;;;;;;25.52;4.13;;;;;;;3.33;100.00;101341.03;4917314;29;20031;-77
2022/12/27 02:07:56;;;;;;;18.45;3.95;;;;;;;3.40;100.00;101355.72;4918194;29;20024;-76
2022/12/27 02:10:22;;;;;;;17.25;3.88;;;;;;;3.32;100.00;101347.31;4933799;29;20031;-75
2022/12/27 02:12:47;;;;;;;26.20;4.15;;;;;;;3.30;100.00;101349.25;4918362;29;20030;-75
2022/12/27 02:15:12;;;;;;;20.38;3.60;;;;;;;3.40;100.00;101358.41;4931291;29;20039;-78
2022/12/27 02:17:39;;;;;;;27.13;3.75;;;;;;;3.44;100.00;101343.84;4942298;28;20053;-77
2022/12/27 02:20:18;;;;;;;28.75;4.40;;;;;;;3.32;100.00;101341.97;4935242;29;20031;-77
2022/12/27 02:25:49;;;;;;;22.40;3.35;;;;;;;3.38;100.00;101346.91;4934213;29;20106;-76
2022/12/27 02:28:51;;;;;;;22.35;3.45;;;;;;;3.29;100.00;101336.81;4935257;29;20032;-77
2022/12/27 02:31:28;;;;;;;18.48;3.80;;;;;;;3.33;100.00;101348.19;4934554;29;20031;-77
2022/12/27 02:33:58;;;;;;;21.83;3.70;;;;;;;3.38;100.00;101362.97;4912285;29;20052;-77
2022/12/27 02:36:28;;;;;;;21.27;3.35;;;;;;;3.35;100.00;101347.13;4933985;29;20028;-77
2022/12/27 02:38:58;;;;;;;22.85;4.05;;;;;;;3.33;100.00;101349.06;4934809;29;20023;-77
2022/12/27 02:53:02;;;;;;;23.92;3.85;;;;;;;3.25;100.00;101340.66;4934398;29;20099;-75
2022/12/27 02:55:41;;;;;;;18.33;3.72;;;;;;;3.25;100.00;101356.69;4934215;29;20055;-76
2022/12/27 02:58:21;;;;;;;21.20;4.03;;;;;;;3.38;100.00;101340.72;4930352;29;20028;-76
2022/12/27 03:04:12;;;;;;;19.95;3.53;;;;;;;3.31;100.00;101350.94;4934093;29;20019;-77
2022/12/27 03:06:52;;;;;;;26.30;5.32;;;;;;;3.30;100.00;101354.59;4916884;29;20024;-76
2022/12/27 03:15:56;;;;;;;20.75;4.70;;;;;;;3.26;100.00;101370.00;4936974;29;20435;-76
2022/12/27 03:18:34;;;;;;;25.58;4.13;;;;;;;3.34;100.00;101348.09;4914925;29;20499;-75
2022/12/27 03:26:36;;;;;;;13.82;4.25;;;;;;;3.19;100.00;101363.31;4914562;29;20055;-75
2022/12/27 03:34:40;;;;;;;29.52;5.25;;;;;;;3.21;100.00;101349.84;4914653;29;20032;-75
2022/12/27 03:40:26;;;;;;;25.08;6.20;;;;;;;3.36;100.00;101372.94;4914560;29;20040;-76
2022/12/27 03:43:11;;;;;;;17.83;4.85;;;;;;;3.29;100.00;101352.88;4914268;29;20071;-76
2022/12/27 03:49:12;;;;;;;12.25;3.70;;;;;;;3.41;100.00;101368.16;4922179;29;20052;-75
2022/12/27 03:51:45;;;;;;;20.13;4.20;;;;;;;3.31;100.00;101340.25;4920631;29;20394;-75
2022/12/27 03:54:33;;;;;;;20.00;4.32;;;;;;;3.34;100.00;101360.63;4921260;29;20032;-77
2022/12/27 03:57:03;;;;;;;18.55;4.32;;;;;;;3.37;100.00;101366.63;4908057;29;20035;-76
2022/12/27 03:59:28;;;;;;;28.52;4.40;;;;;;;3.37;100.00;101377.31;4913339;29;20398;-75
2022/12/27 04:01:54;;;;;;;19.40;3.80;;;;;;;3.36;100.00;101375.59;4904792;29;20032;-76
2022/12/27 04:04:20;;;;;;;17.33;4.63;;;;;;;3.43;100.00;101379.59;4928356;29;20043;-76
2022/12/27 04:06:45;;;;;;;21.92;3.80;;;;;;;3.60;100.00;101366.94;4903553;29;20051;-75
2022/12/27 04:36:29;;;;;;;28.30;5.13;;;;;;;3.52;100.00;101387.06;4932500;29;20027;-75
2022/12/27 04:38:55;;;;;;;19.02;5.43;;;;;;;3.50;100.00;101388.94;4933159;29;20034;-75
2022/12/27 04:55:20;;;;;;;26.20;5.07;;;;;;;3.52;100.00;101387.06;4933000;29;20466;-76
2022/12/27 04:57:45;;;;;;;31.70;6.63;;;;;;;3.62;100.00;101413.22;4932462;29;20028;-75
2022/12/27 05:02:57;;;;;;;31.02;5.88;;;;;;;3.70;100.00;101406.38;4932504;29;20023;-75
2022/12/27 05:05:24;;;;;;;25.33;5.53;;;;;;;3.77;100.00;101406.84;4931641;29;20036;-76
2022/12/27 05:16:00;;;;;;;24.17;6.22;;;;;;;3.58;100.00;101417.03;4932951;29;20032;-77
2022/12/27 05:18:26;;;;;;;24.80;6.18;;;;;;;3.52;100.00;101413.81;4936172;29;20083;-76
2022/12/27 05:20:51;;;;;;;19.38;6.35;;;;;;;3.71;100.00;101423.31;4919397;29;20502;-78
2022/12/27 05:26:01;;;;;;;27.58;6.07;;;;;;;3.52;100.00;101434.34;4936548;29;20019;-76
2022/12/27 05:28:26;;;;;;;31.83;6.07;;;;;;;3.39;100.00;101433.41;4920351;29;20028;-76
2022/12/27 05:30:52;;;;;;;23.55;5.38;;;;;;;3.44;100.00;101421.47;4937017;29;20023;-76
2022/12/27 05:33:17;;;;;;;29.67;5.38;;;;;;;3.43;100.00;101437.63;4921765;29;20020;-76
2022/12/27 05:35:43;;;;;;;25.58;5.50;;;;;;;3.54;100.00;101427.97;4920071;29;20028;-78
2022/12/27 05:38:08;;;;;;;22.80;6.32;;;;;;;3.41;100.00;101451.13;4935110;29;20024;-76
2022/12/27 05:40:33;;;;;;;21.27;4.93;;;;;;;3.29;100.00;101433.16;4935406;29;20034;-76
2022/12/27 05:43:00;;;;;;;22.08;6.50;;;;;;;3.33;100.00;101437.38;4918907;29;20480;-77
2022/12/27 05:45:26;;;;;;;35.42;7.90;;;;;;;3.32;100.00;101427.59;4918991;29;20030;-76
2022/12/27 05:47:52;;;;;;;25.50;6.70;;;;;;;3.26;100.00;101433.38;4918949;29;20028;-76
2022/12/27 05:50:18;;;;;;;23.98;6.72;;;;;;;3.29;100.00;101427.81;4934657;29;20538;-76
2022/12/27 05:52:43;;;;;;;22.73;7.00;;;;;;;3.36;100.00;101431.81;4918047;29;20024;-75
2022/12/27 05:55:08;;;;;;;18.95;6.10;;;;;;;3.44;100.00;101432.16;4935723;29;20406;-75
2022/12/27 05:57:34;;;;;;;26.60;5.95;;;;;;;3.53;100.00;101431.59;4935057;29;20078;-74
2022/12/27 05:59:59;;;;;;;17.80;5.35;;;;;;;3.57;100.00;101426.03;4918230;29;20039;-75
2022/12/27 06:02:25;;;;;;;19.70;5.85;;;;;;;3.56;100.00;101435.88;4917753;29;20035;-75
2022/12/27 06:04:50;;;;;;;17.88;5.40;;;;;;;3.52;100.00;101445.94;4917811;29;20487;-74
2022/12/27 06:07:16;;;;;;;19.33;5.18;;;;;;;3.47;100.00;101447.19;4936033;29;20023;-74
2022/12/27 06:09:42;;;;;;;25.75;6.05;;;;;;;3.56;100.00;101448.41;4918009;29;20027;-74
2022/12/27 06:12:07;;;;;;;29.13;6.93;;;;;;;3.53;100.00;101453.00;4935047;29;20047;-74
2022/12/27 06:14:33;;;;;;;25.50;6.03;;;;;;;3.62;100.00;101461.41;4941690;29;20038;-74
2022/12/27 06:16:58;;;;;;;20.35;5.25;;;;;;;3.63;100.00;101468.47;4917699;29;20032;-74
2022/12/27 06:19:23;;;;;;;32.58;6.00;;;;;;;3.63;100.00;101484.53;4907662;29;20397;-74
2022/12/27 06:21:49;;;;;;;19.20;5.72;;;;;;;3.67;100.00;101475.38;4898095;29;20063;-74
2022/12/27 06:24:14;;;;;;;26.20;5.97;;;;;;;3.54;100.00;101454.72;4899450;29;20118;-74
2022/12/27 06:26:41;;;;;;;17.77;5.75;;;;;;;3.65;100.00;101469.22;4915813;29;20079;-74
2022/12/27 06:29:06;;;;;;;25.83;5.57;;;;;;;3.48;100.00;101487.25;4904048;29;20039;-75
2022/12/27 06:31:31;;;;;;;25.42;6.18;;;;;;;3.57;100.00;101484.94;4925653;29;20024;-74
2022/12/27 06:33:57;;;;;;;21.67;5.53;;;;;;;3.54;100.00;101492.22;4919970;29;20034;-74
2022/12/27 06:36:26;;;;;;;17.10;5.30;;;;;;;3.56;100.00;101493.94;4933981;29;20063;-74
2022/12/27 06:38:51;;;;;;;21.52;5.55;;;;;;;3.54;100.00;101502.94;4922570;29;20017;-74
2022/12/27 06:41:17;;;;;;;21.23;5.17;;;;;;;3.47;100.00;101501.59;4912937;29;20030;-74
2022/12/27 06:43:43;;;;;;;27.20;5.15;;;;;;;3.50;100.00;101512.09;4921197;29;20042;-74
2022/12/27 06:46:11;;;;;;;18.73;4.82;;;;;;;3.65;100.00;101493.31;4922740;29;20082;-74
2022/12/27 06:48:37;;;;;;;27.92;5.30;;;;;;;3.61;100.00;101513.25;4917378;29;20126;-74
2022/12/27 06:51:07;;;;;;;20.77;4.93;;;;;;;3.66;100.00;101505.78;4933937;29;20099;-73
2022/12/27 06:53:35;;;;;;;18.80;4.63;;;;;;;3.67;100.00;101521.75;4933475;29;20023;-74
2022/12/27 06:56:05;;;;;;;19.15;4.80;;;;;;;3.71;100.00;101509.00;4912335;29;20063;-74
2022/12/27 06:58:31;;;;;;;17.67;4.60;;;;;;;3.63;100.00;101530.91;4931032;29;20019;-75
2022/12/27 07:00:56;;;;;;;21.70;5.05;;;;;;;3.75;100.00;101521.25;4902040;29;20016;-75
2022/12/27 07:03:22;;;;;;;17.65;4.13;;;;;;;3.71;100.00;101530.44;4910031;29;20034;-75
2022/12/27 07:05:47;;;;;;;20.73;5.07;;;;;;;3.72;100.00;101532.16;4897379;29;20028;-75
2022/12/27 07:08:12;;;;;;;17.58;4.43;;;;;;;3.80;100.00;101540.56;4915796;29;20032;-76
2022/12/27 07:10:38;;;;;;;22.65;5.18;;;;;;;3.76;100.00;101555.97;4899763;29;20020;-75
2022/12/27 07:13:03;;;;;;;21.02;4.68;;;;;;;3.66;100.00;101560.19;4919630;29;20057;-75
2022/12/27 07:15:29;;;;;;;24.10;4.57;;;;;;;3.71;100.00;101576.81;4936494;29;20114;-78
2022/12/27 07:17:54;;;;;;;19.15;4.20;;;;;;;3.72;100.00;101575.03;4935949;29;20034;-77
2022/12/27 07:20:19;;;;;;;20.48;5.50;;;;;;;3.61;100.00;101582.88;4934612;29;20047;-77
2022/12/27 07:22:45;;;;;;;29.65;6.22;;;;;;;3.75;100.00;101574.81;4921356;29;20039;-78
2022/12/27 07:25:10;;;;;;;22.80;5.38;;;;;;;4.04;100.00;101565.78;4934875;29;20043;-76
2022/12/27 07:27:36;;;;;;;25.05;4.38;;;;;;;4.27;100.00;101571.47;4917717;29;20083;-76
2022/12/27 07:30:03;;;;;;;21.80;4.50;;;;;;;4.09;100.00;101574.38;4934419;29;20063;-76
2022/12/27 07:32:28;;;;;;;21.10;4.82;;;;;;;3.78;100.00;101579.97;4916959;29;20534;-78
2022/12/27 07:34:53;;;;;;;20.92;4.82;;;;;;;3.99;100.00;101583.97;4909630;29;20107;-75
2022/12/27 07:37:40;;;;;;;26.83;5.85;;;;;;;4.04;100.00;101576.50;4917338;29;20055;-77
2022/12/27 07:40:06;;;;;;;22.63;4.60;;;;;;;4.11;100.00;101581.44;4916783;29;20032;-76
2022/12/27 07:42:31;;;;;;;25.83;5.35;;;;;;;3.87;100.00;101584.75;4932180;29;20098;-76
2022/12/27 07:44:58;;;;;;;22.23;5.63;;;;;;;3.76;100.00;101603.31;4922655;29;20024;-76
2022/12/27 07:47:23;;;;;;;29.15;6.63;;;;;;;3.87;100.00;101627.63;4916700;29;20072;-76
2022/12/27 07:49:48;;;;;;;21.13;5.15;;;;;;;3.80;100.00;101600.34;4932554;29;20035;-76
2022/12/27 07:52:14;;;;;;;29.25;5.30;;;;;;;3.89;100.00;101604.25;4915953;29;20031;-75
2022/12/27 07:54:40;;;;;;;30.00;5.88;;;;;;;4.00;100.00;101609.81;4933436;29;20043;-77
2022/12/27 07:57:05;;;;;;;21.75;5.97;;;;;;;3.95;100.00;101611.06;4916429;29;20034;-76
2022/12/27 07:59:31;;;;;;;27.05;5.20;;;;;;;4.05;100.00;101610.38;4933393;29;20024;-76
2022/12/27 08:02:05;;;;;;;34.63;5.85;;;;;;;4.10;100.00;101607.38;4947800;29;20026;-74
2022/12/27 08:04:33;;;;;;;19.85;4.97;;;;;;;4.24;100.00;101619.91;4932898;29;20114;-76
2022/12/27 08:07:14;;;;;;;30.48;5.50;;;;;;;4.19;100.00;101622.03;4918391;29;20150;-76
2022/12/27 08:09:42;;;;;;;24.02;5.20;;;;;;;4.16;100.00;101632.94;4916027;29;20023;-76
2022/12/27 08:12:08;;;;;;;18.38;4.18;;;;;;;4.03;100.00;101628.34;4916413;29;20032;-76
2022/12/27 08:14:33;;;;;;;27.67;5.15;;;;;;;3.66;100.00;101639.69;4923603;29;20030;-76
2022/12/27 08:17:07;;;;;;;32.83;5.47;;;;;;;3.66;100.00;101648.56;4928592;29;20071;-76
2022/12/27 08:19:33;;;;;;;28.08;5.07;;;;;;;3.66;100.00;101639.69;4944977;29;20400;-75
2022/12/27 08:21:58;;;;;;;23.38;5.05;;;;;;;3.80;100.00;101645.03;4913220;29;20210;-76
2022/12/27 08:24:23;;;;;;;20.20;5.10;;;;;;;3.69;100.00;101655.53;4914186;29;20035;-76
2022/12/27 08:26:49;;;;;;;30.40;5.30;;;;;;;3.86;100.00;101658.03;4912419;29;20414;-76
2022/12/27 08:29:14;;;;;;;24.38;5.18;;;;;;;3.70;100.00;101667.97;4914198;29;20126;-76
2022/12/27 08:31:40;;;;;;;26.35;4.18;;;;;;;3.85;100.00;101666.16;4912630;29;20028;-77
2022/12/27 08:34:06;;;;;;;31.77;4.75;;;;;;;3.71;100.00;101675.91;4913552;29;20040;-78
2022/12/27 08:36:31;;;;;;;18.45;4.45;;;;;;;3.76;100.00;101672.94;4912936;29;20040;-76
2022/12/27 08:38:56;;;;;;;21.92;4.28;;;;;;;3.69;100.00;101676.97;4914185;29;20048;-77
2022/12/27 08:41:22;;;;;;;24.30;4.18;;;;;;;3.70;100.00;101678.69;4912947;29;20039;-77
2022/12/27 08:43:47;;;;;;;20.52;4.75;;;;;;;3.81;100.00;101686.94;4913346;29;20039;-75
2022/12/27 08:46:13;;;;;;;27.02;5.50;;;;;;;3.78;100.00;101693.34;4912397;29;20042;-75
2022/12/27 08:48:38;;;;;;;14.88;4.47;;;;;;;3.74;100.00;101680.22;4913012;29;20028;-74
2022/12/27 08:51:05;;;;;;;23.83;4.65;;;;;;;3.73;100.00;101681.19;4913174;29;20028;-74
2022/12/27 08:53:30;;;;;;;20.60;4.45;;;;;;;3.69;100.00;101671.59;4932958;29;20032;-75
2022/12/27 08:55:56;;;;;;;25.83;4.80;;;;;;;3.79;100.00;101673.63;4916529;29;20019;-74
2022/12/27 08:58:22;;;;;;;24.27;4.47;;;;;;;3.73;100.00;101694.59;4917548;29;20035;-75
2022/12/27 09:00:47;;;;;;;19.50;4.68;;;;;;;3.68;100.00;101692.19;4916764;29;20467;-74
2022/12/27 09:03:13;;;;;;;16.48;4.20;;;;;;;3.77;100.00;101690.75;4918066;29;20032;-74
2022/12/27 09:05:39;;;;;;;19.67;4.78;;;;;;;3.68;100.00;101702.03;4947834;28;20487;-72
2022/12/27 09:08:04;;;;;;;23.45;5.47;;;;;;;3.75;100.00;101714.94;4916035;29;20028;-72
2022/12/27 09:10:29;;;;;;;17.63;4.10;;;;;;;3.84;100.00;101713.50;4916657;29;20507;-72
2022/12/27 09:12:55;;;;;;;26.98;5.15;;;;;;;3.82;100.00;101736.88;4917540;29;20103;-74
2022/12/27 09:15:20;;;;;;;25.90;5.32;;;;;;;3.87;100.00;101717.84;4925173;29;20100;-76
2022/12/27 09:17:45;;;;;;;17.95;4.13;;;;;;;3.84;100.00;101708.16;4943804;28;20036;-72
2022/12/27 09:20:11;;;;;;;33.53;5.05;;;;;;;4.17;100.00;101704.34;4920128;29;20031;-74
2022/12/27 09:22:37;;;;;;;25.48;5.72;;;;;;;4.08;100.00;101701.28;4919560;29;20023;-72
2022/12/27 09:25:02;;;;;;;26.30;5.10;;;;;;;4.09;100.00;101719.06;4919550;29;20031;-73
2022/12/27 09:27:28;;;;;;;29.88;4.55;;;;;;;4.09;100.00;101713.72;4920213;29;20054;-74
2022/12/27 09:29:53;;;;;;;27.80;5.18;;;;;;;4.36;100.00;101727.19;4936751;29;20122;-73
2022/12/27 09:32:19;;;;;;;24.55;5.10;;;;;;;4.30;100.00;101726.72;4936521;29;20099;-73
2022/12/27 09:34:44;;;;;;;20.65;4.22;;;;;;;4.38;100.00;101729.81;4919083;29;20036;-74
2022/12/27 09:37:10;;;;;;;24.77;5.75;;;;;;;4.24;100.00;101728.00;4935554;29;20027;-73
2022/12/27 09:39:36;;;;;;;20.83;4.80;;;;;;;4.03;100.00;101740.91;4936192;29;20126;-75
2022/12/27 09:42:26;;;;;;;22.60;3.88;;;;;;;4.06;100.00;101735.38;4915478;29;20124;-73
2022/12/27 09:45:02;;;;;;;19.90;4.10;;;;;;;4.18;100.00;101740.94;4934514;29;20034;-74
2022/12/27 09:47:38;;;;;;;21.27;4.15;;;;;;;4.21;100.00;101738.03;4927659;29;20059;-75
2022/12/27 09:50:32;;;;;;;24.63;4.07;;;;;;;4.26;100.00;101741.28;4936331;29;20063;-73
2022/12/27 09:53:00;;;;;;;40.58;5.20;;;;;;;4.27;100.00;101770.69;4936163;29;20403;-73
2022/12/27 09:55:45;;;;;;;31.77;4.32;;;;;;;4.24;100.00;101753.94;4935940;29;20070;-73
2022/12/27 09:58:32;;;;;;;27.63;3.72;;;;;;;4.32;100.00;101740.91;4936739;29;20070;-73
2022/12/27 10:00:58;;;;;;;24.50;3.67;;;;;;;4.26;100.00;101773.47;4934812;29;20036;-73
2022/12/27 10:03:26;;;;;;;25.17;4.80;;;;;;;4.43;100.00;101738.41;4918392;29;20411;-73
2022/12/27 10:06:11;;;;;;;22.95;4.32;;;;;;;4.45;100.00;101735.63;4918583;29;20029;-74
2022/12/27 10:09:09;;;;;;;24.77;4.00;;;;;;;4.51;100.00;101746.84;4934911;29;20055;-73
2022/12/27 10:11:56;;;;;;;21.27;4.43;;;;;;;4.63;100.00;101746.06;4912667;29;20075;-74
2022/12/27 10:14:57;;;;;;;17.13;3.17;;;;;;;4.66;100.00;101744.13;4941398;29;20031;-74
2022/12/27 10:18:00;;;;;;;35.63;4.25;;;;;;;4.79;100.00;101745.06;4920023;29;20040;-75
2022/12/27 10:20:58;;;;;;;31.35;3.85;;;;;;;4.74;100.00;101747.16;4912823;29;20025;-74
2022/12/27 10:23:28;;;;;;;27.42;4.03;;;;;;;4.78;100.00;101759.44;4917530;29;20064;-74
2022/12/27 10:26:01;;;;;;;22.45;4.28;;;;;;;4.82;100.00;101755.56;4910160;29;20035;-74
2022/12/27 10:28:38;;;;;;;24.40;4.68;;;;;;;4.68;100.00;101785.13;4933346;29;20510;-74
2022/12/27 10:31:04;;;;;;;13.52;4.00;;;;;;;4.82;100.00;101771.66;4925786;29;20032;-75
2022/12/27 10:33:32;;;;;;;16.63;3.55;;;;;;;5.06;100.00;101759.34;4922102;29;20867;-76
2022/12/27 10:36:01;;;;;;;18.83;4.35;;;;;;;5.16;100.00;101763.16;4923014;29;20062;-74
2022/12/27 10:38:32;;;;;;;29.42;5.57;;;;;;;5.19;100.00;101783.56;4929857;29;20051;-74
2022/12/27 10:41:25;;;;;;;21.08;4.68;;;;;;;5.15;100.00;101773.97;4912255;29;20024;-74
2022/12/27 10:43:53;;;;;;;26.00;4.40;;;;;;;5.29;100.00;101786.50;4928397;29;20040;-74
2022/12/27 10:46:23;;;;;;;38.05;5.47;;;;;;;5.39;100.00;101777.72;4911250;29;20027;-77
2022/12/27 10:49:05;;;;;;;21.83;4.07;;;;;;;5.09;100.00;101779.78;4925148;28;20039;-74
2022/12/27 10:51:37;;;;;;;20.98;4.45;;;;;;;5.00;100.00;101773.16;4915655;29;20094;-77
2022/12/27 10:54:04;;;;;;;;;;;;;;;5.11;100.00;101789.44;4923632;29;20043;-76
2022/12/27 10:56:33;;;;;;;30.98;3.75;;;;;;;5.10;100.00;101782.34;4924573;29;19914;-75
2022/12/27 10:59:11;;;;;;;28.00;4.07;;;;;;;5.11;100.00;101784.06;4923888;29;20094;-77
2022/12/27 11:01:37;;;;;;;19.70;5.72;;;;;;;5.39;100.00;101776.88;4928353;29;20195;-77
2022/12/27 11:04:23;;;;;;;27.25;3.97;;;;;;;5.37;100.00;101784.16;4912559;29;20519;-76
2022/12/27 11:06:50;;;;;;;21.77;3.72;;;;;;;5.53;100.00;101779.47;4913900;29;20048;-75
2022/12/27 11:09:31;;;;;;;18.95;3.22;;;;;;;5.83;99.71;101781.06;4917853;29;20043;-78
2022/12/27 11:12:17;;;;;;;24.40;4.28;;;;;;;5.80;99.70;101792.00;4923155;29;20028;-76
2022/12/27 11:15:03;;;;;;;16.17;4.05;;;;;;;5.38;100.00;101802.00;4933068;28;20032;-74
2022/12/27 11:17:36;;;;;;;23.35;3.90;;;;;;;5.30;100.00;101812.41;4931952;29;20032;-73
2022/12/27 11:20:19;;;;;;;26.83;4.18;;;;;;;5.47;100.00;101800.50;4937377;29;20039;-73
2022/12/27 11:22:51;;;;;;;19.05;3.58;;;;;;;5.50;100.00;101806.56;4937820;29;20027;-76
2022/12/27 11:25:18;;;;;;;21.63;3.63;;;;;;;5.57;100.00;101807.88;4932139;29;20035;-73
2022/12/27 11:27:50;;;;;;;18.48;3.25;;;;;;;5.76;100.00;101812.88;4929603;29;20035;-74
2022/12/27 11:30:23;;;;;;;;;;;;;;;5.67;98.79;101822.41;4929415;29;20083;-73
2022/12/27 11:32:49;;;;;;;23.25;4.13;;;;;;;5.46;100.00;101810.41;4937802;29;19918;-73
2022/12/27 11:35:20;;;;;;;13.02;3.45;;;;;;;5.59;100.00;101822.03;4916180;29;20460;-76
2022/12/27 11:37:47;;;;;;;20.25;4.35;;;;;;;5.66;99.36;101815.28;4932768;29;20027;-76
2022/12/27 11:40:23;;;;;;;24.42;4.25;;;;;;;5.95;98.20;101817.88;4939661;29;20027;-73
2022/12/27 11:43:11;;;;;;;18.52;3.83;;;;;;;5.72;98.14;101805.97;4918327;29;20020;-73
2022/12/27 11:45:46;;;;;;;14.45;3.65;;;;;;;5.90;98.07;101809.22;4924470;29;20415;-73
2022/12/27 11:48:22;;;;;;;17.00;4.35;;;;;;;6.34;97.36;101818.78;4933001;29;20020;-74
2022/12/27 11:51:30;;;;;;;19.88;4.40;;;;;;;6.16;96.97;101821.75;4941755;29;20079;-76
2022/12/27 11:54:10;;;;;;;25.58;4.07;;;;;;;6.24;95.88;101819.41;4923085;29;20023;-73
2022/12/27 11:56:40;;;;;;;22.90;3.97;;;;;;;6.33;97.21;101795.53;4916691;29;20079;-73
2022/12/27 11:59:24;;;;;;;20.35;3.70;;;;;;;6.00;96.38;101815.75;4934310;29;20019;-75
2022/12/27 12:02:24;;;;;;;17.17;3.05;;;;;;;5.89;97.36;101818.25;4916788;29;20032;-74
2022/12/27 12:05:05;;;;;;;32.20;4.18;;;;;;;5.95;97.10;101812.50;4929996;29;20032;-76
2022/12/27 12:07:42;;;;;;;18.33;4.13;;;;;;;6.06;97.05;101812.59;4930646;29;20090;-78
2022/12/27 12:10:26;;;;;;;17.65;3.47;;;;;;;6.13;96.58;101816.63;4929598;29;20043;-75
2022/12/27 12:13:04;;;;;;;15.50;3.08;;;;;;;6.20;96.01;101823.28;4915863;29;20026;-75
2022/12/27 12:15:48;;;;;;;18.48;3.65;;;;;;;5.95;96.57;101831.31;4946735;28;20114;-74
2022/12/27 12:18:38;;;;;;;17.05;3.22;;;;;;;6.25;95.83;101821.13;4946356;28;20364;-73
2022/12/27 12:21:23;;;;;;;19.90;2.85;;;;;;;6.05;96.48;101818.94;4946895;29;20431;-73
2022/12/27 12:24:13;;;;;;;23.42;3.25;;;;;;;6.04;95.79;101832.50;4946309;28;20166;-75
2022/12/27 12:27:23;;;;;;;20.60;3.50;;;;;;;6.35;94.96;101823.19;4945682;28;20039;-76
2022/12/27 12:30:10;;;;;;;21.75;4.03;;;;;;;6.41;95.22;101825.44;4931488;29;20098;-74
2022/12/27 12:33:05;;;;;;;16.95;3.88;;;;;;;6.37;94.91;101840.06;4930625;29;20032;-75
2022/12/27 12:35:56;;;;;;;22.83;4.40;;;;;;;6.12;95.83;101836.38;4914568;29;20081;-75
2022/12/27 12:38:57;;;;;;;32.55;5.00;;;;;;;5.87;96.60;101830.97;4932711;29;20024;-75
2022/12/27 12:41:47;;;;;;;24.63;5.18;;;;;;;5.94;97.17;101838.53;4914941;29;20030;-74
2022/12/27 12:44:42;;;;;;;31.02;4.57;;;;;;;6.05;96.82;101840.47;4945598;28;20071;-75
2022/12/27 12:47:26;;;;;;;25.63;5.07;;;;;;;5.95;97.59;101834.88;4932870;29;20114;-76
2022/12/27 12:49:57;;;;;;;28.27;4.22;;;;;;;5.86;97.10;101856.09;4933682;29;20027;-73
2022/12/27 12:52:34;;;;;;;22.95;4.22;;;;;;;5.66;98.45;101844.00;4930411;29;20087;-73
2022/12/27 12:55:21;;;;;;;26.05;4.55;;;;;;;5.59;98.76;101838.16;4948439;29;20550;-74
2022/12/27 12:58:02;;;;;;;23.05;4.18;;;;;;;5.62;98.62;101843.34;4946174;29;20031;-75
2022/12/27 13:00:39;;;;;;;20.30;4.20;;;;;;;5.64;98.45;101825.28;4923214;29;20024;-74
2022/12/27 13:03:42;;;;;;;28.40;4.45;;;;;;;5.70;97.92;101816.81;4931053;29;20024;-74
2022/12/27 13:06:26;;;;;;;26.02;4.18;;;;;;;5.81;98.26;101826.00;4915859;29;20053;-73
2022/12/27 13:09:03;;;;;;;17.13;3.28;;;;;;;5.89;97.35;101818.25;4932835;29;20098;-73
2022/12/27 13:11:46;;;;;;;26.50;4.68;;;;;;;5.72;98.09;101817.56;4932983;29;20024;-75
2022/12/27 13:14:42;;;;;;;22.45;4.55;;;;;;;5.96;97.62;101819.59;4918441;29;20031;-74
2022/12/27 13:17:30;;;;;;;32.00;4.25;;;;;;;5.71;97.90;101815.00;4940377;28;20027;-76
2022/12/27 13:20:19;;;;;;;27.65;4.43;;;;;;;5.71;97.68;101815.84;4910939;29;20090;-73